CSUN Campus Station - National Weather Service Data Page - PST Time




                Date      RH     Dew  Seasonal     Current   Max Air   Min Air    Wind    Wind    Wind    Gust     Bar    Rain
                Time       %   Point      Rain    Air Temp     Since     Since   Speed    Gust     Dir     Dir   Press   Total
                               Deg F    Inches       Deg F  Midnight  Midnight     MPH     MPH                      mb  Inches
------------------------------------------------------------------------------------------------------------------------------
    10/24/2021 00:00      80    50.0      0.18        56.1      72.6      55.8       0       0       0      32    1011    0.00
    10/24/2021 00:10      81    50.1      0.18        55.8      56.0      55.6       0       2     349     344    1011    0.00
    10/24/2021 00:20      82    50.3      0.18        55.8      56.1      55.6       1       3      25      46    1011    0.00
    10/24/2021 00:30      82    50.7      0.18        56.1      56.3      55.6       1       3      34      32    1011    0.00
    10/24/2021 00:40      82    50.8      0.18        56.2      56.5      55.6       1       2      17      32    1011    0.00
    10/24/2021 00:50      82    50.6      0.18        56.1      56.5      55.6       0       2      42      37    1011    0.00
    10/24/2021 01:00      82    50.6      0.18        56.0      56.5      55.6       1       2      13      36    1011    0.00
    10/24/2021 01:10      82    50.4      0.18        55.8      56.5      55.6       0       2      16     344    1011    0.00
    10/24/2021 01:20      82    50.3      0.18        55.6      56.5      55.4       0       2      38      39    1011    0.00
    10/24/2021 01:30      83    50.5      0.18        55.6      56.5      55.4       0       1       2      33    1011    0.00
    10/24/2021 01:40      83    50.7      0.18        55.7      56.5      55.4       1       2     348     341    1011    0.00
    10/24/2021 01:50      83    50.9      0.18        55.8      56.5      55.4       0       2     348     347    1011    0.00
    10/24/2021 02:00      84    50.9      0.18        55.9      56.5      55.4       1       3      31      36    1011    0.00
    10/24/2021 02:10      83    51.1      0.18        56.1      56.5      55.4       0       2      37      38    1011    0.00
    10/24/2021 02:20      83    51.0      0.18        55.9      56.5      55.4       0       0      49      49    1011    0.00
    10/24/2021 02:30      84    50.8      0.18        55.7      56.5      55.4       0       0       0      64    1011    0.00
    10/24/2021 02:40      84    50.8      0.18        55.6      56.5      55.4       0       0      63      62    1011    0.00
    10/24/2021 02:50      84    50.4      0.18        55.3      56.5      54.9       0       1     161     164    1011    0.00
    10/24/2021 03:00      84    50.1      0.18        54.9      56.5      54.5       0       0     169     169    1010    0.00
    10/24/2021 03:10      84    50.1      0.18        54.8      56.5      54.5       0       0       0     169    1011    0.00
    10/24/2021 03:20      85    50.1      0.18        54.8      56.5      54.5       0       0       0     169    1011    0.00
    10/24/2021 03:30      85    50.4      0.18        54.9      56.5      54.5       0       0       0     169    1011    0.00
    10/24/2021 03:40      85    50.1      0.18        54.6      56.5      54.3       0       0       0     169    1011    0.00
    10/24/2021 03:50      85    50.1      0.18        54.5      56.5      54.3       0       1     146     146    1011    0.00
    10/24/2021 04:00      86    50.4      0.18        54.6      56.5      54.3       0       0       0     262    1011    0.00
    10/24/2021 04:10      86    50.8      0.18        55.0      56.5      54.3       0       0       0     265    1011    0.00
    10/24/2021 04:20      86    51.2      0.18        55.3      56.5      54.3       0       0       0     265    1011    0.00
    10/24/2021 04:30      86    51.6      0.18        55.7      56.5      54.3       0       0       0     265    1011    0.00
    10/24/2021 04:40      86    51.8      0.18        55.9      56.5      54.3       0       2     173     173    1011    0.00
    10/24/2021 04:50      86    52.0      0.18        56.1      56.5      54.3       0       2     129      95    1011    0.00
    10/24/2021 05:00      86    52.1      0.18        56.3      56.5      54.3       0       3     170     159    1011    0.00
    10/24/2021 05:10      86    52.1      0.18        56.3      56.5      54.3       0       2     115     132    1011    0.00
    10/24/2021 05:20      86    52.1      0.18        56.3      56.5      54.3       0       1     132     167    1011    0.00
    10/24/2021 05:30      86    52.2      0.18        56.4      56.6      54.3       0       1     159     174    1011    0.00
    10/24/2021 05:40      86    52.2      0.18        56.4      56.6      54.3       0       0       0     217    1011    0.00
    10/24/2021 05:50      86    52.1      0.18        56.4      56.6      54.3       0       2     103      92    1011    0.00
    10/24/2021 06:00      85    52.1      0.18        56.4      56.6      54.3       0       3     107     102    1011    0.00
    10/24/2021 06:10      85    52.0      0.18        56.4      56.6      54.3       0       2      91      88    1011    0.00
    10/24/2021 06:20      85    52.0      0.18        56.5      56.7      54.3       0       2      59      46    1011    0.00
    10/24/2021 06:30      84    52.0      0.18        56.6      56.8      54.3       0       2     113     136    1011    0.00
    10/24/2021 06:40      84    52.0      0.18        56.7      57.0      54.3       1       2     109      96    1012    0.00
    10/24/2021 06:50      83    51.9      0.18        56.7      57.0      54.3       1       2     133     103    1012    0.00
    10/24/2021 07:00      83    51.9      0.18        56.9      57.1      54.3       2       3     169     171    1012    0.00
    10/24/2021 07:10      83    52.0      0.18        57.1      57.3      54.3       2       3     174     177    1012    0.00
    10/24/2021 07:20      82    52.1      0.18        57.3      57.5      54.3       1       2     164     159    1012    0.00
    10/24/2021 07:30      81    51.9      0.18        57.4      57.6      54.3       0       1     114     111    1012    0.00
    10/24/2021 07:40      81    52.1      0.18        57.8      58.2      54.3       0       0     200     200    1012    0.00
    10/24/2021 07:50      79    52.0      0.18        58.1      58.4      54.3       1       3     284     282    1012    0.00
    10/24/2021 08:00      79    51.7      0.18        58.1      58.4      54.3       2       3     268     268    1012    0.00
    10/24/2021 08:10      78    51.9      0.18        58.4      58.7      54.3       0       2     125      82    1013    0.00
    10/24/2021 08:20      77    51.6      0.18        58.5      58.9      54.3       2       4     108     173    1013    0.00
    10/24/2021 08:30      76    51.8      0.18        58.9      59.2      54.3       2       5     150     127    1013    0.00
    10/24/2021 08:40      76    51.5      0.18        59.0      59.3      54.3       1       4     114      83    1013    0.00
    10/24/2021 08:50      76    51.5      0.18        59.2      59.6      54.3       2       4     142     141    1013    0.00
    10/24/2021 09:00      74    51.9      0.18        59.8      60.2      54.3       3       6     172     162    1013    0.00
    10/24/2021 09:10      73    51.9      0.18        60.3      60.5      54.3       3       7     186     170    1013    0.00
    10/24/2021 09:20      73    51.8      0.18        60.4      60.7      54.3       2       4     191     191    1013    0.00
    10/24/2021 09:30      73    51.5      0.18        60.3      60.7      54.3       3       6     178     208    1013    0.00
    10/24/2021 09:40      71    51.6      0.18        60.7      60.9      54.3       2       4     193     171    1013    0.00
    10/24/2021 09:50      71    51.0      0.18        60.6      60.9      54.3       1       2     154     150    1013    0.00
    10/24/2021 10:00      70    51.6      0.18        61.1      61.5      54.3       1       3     213     218    1013    0.00
    10/24/2021 10:10      70    51.2      0.18        61.0      61.5      54.3       2       5     265     258    1013    0.00
    10/24/2021 10:20      71    51.2      0.18        60.7      61.5      54.3       0       2     309     269    1013    0.00
    10/24/2021 10:30      67    51.6      0.18        61.9      62.5      54.3       2       3      52      99    1013    0.00
    10/24/2021 10:40      66    50.9      0.18        62.6      63.3      54.3       1       3     104      86    1013    0.00
    10/24/2021 10:50      63    51.1      0.18        63.7      64.1      54.3       1       5     116      84    1013    0.00
    10/24/2021 11:00      62    50.7      0.18        63.9      64.3      54.3       4       6     139     142    1013    0.00
    10/24/2021 11:10      63    50.4      0.18        63.5      64.3      54.3       1       3      72      91    1013    0.00
    10/24/2021 11:20      63    50.9      0.18        63.8      64.4      54.3       3       7     101      76    1013    0.00
    10/24/2021 11:30      57    51.5      0.18        65.7      66.4      54.3       2       6     134     129    1012    0.00
    10/24/2021 11:40      60    50.6      0.18        65.3      66.4      54.3       2       6     120     150    1012    0.00
    10/24/2021 11:50      59    51.0      0.18        65.2      66.4      54.3       2       5     120     155    1012    0.00
    10/24/2021 12:00      56    51.1      0.18        66.5      67.0      54.3       3       7     136     152    1012    0.00
    10/24/2021 12:10      55    50.7      0.18        67.2      67.6      54.3       3       6     122     186    1012    0.00
    10/24/2021 12:20      57    50.3      0.18        66.9      67.6      54.3       3       6     120      83    1012    0.00
    10/24/2021 12:30      54    50.9      0.18        67.0      68.2      54.3       3       7     129     138    1012    0.00
    10/24/2021 12:40      54    50.4      0.18        67.9      68.2      54.3       3       7     132     147    1012    0.00
    10/24/2021 12:50      52    50.3      0.18        68.1      68.4      54.3       2       8     146     169    1011    0.00
    10/24/2021 13:00      53    50.1      0.18        67.8      68.4      54.3       2       5     110     104    1011    0.00
    10/24/2021 13:10      53    50.4      0.18        67.6      68.4      54.3       3       6     136     165    1011    0.00
    10/24/2021 13:20      54    50.0      0.18        67.2      68.4      54.3       3       8      64      50    1011    0.00
    10/24/2021 13:30      55    50.3      0.18        67.0      68.4      54.3       3       8      88     207    1011    0.00
    10/24/2021 13:40      52    50.6      0.18        68.5      69.0      54.3       4       8     139     171    1011    0.00
    10/24/2021 13:50      51    50.4      0.18        69.5      69.8      54.3       2       5     156     177    1011    0.00
    10/24/2021 14:00      50    50.4      0.18        69.8      70.0      54.3       2       6     157     163    1011    0.00
    10/24/2021 14:10      51    49.8      0.19        69.3      70.0      54.3       2       6     115     102    1011    0.01
    10/24/2021 14:20      50    49.9      0.19        69.0      70.0      54.3       2       5      98     119    1011    0.00
    10/24/2021 14:30      51    49.9      0.19        69.0      70.0      54.3       3       6      92      54    1011    0.00
    10/24/2021 14:40      51    50.5      0.19        69.0      70.0      54.3       3       5     175     154    1011    0.00
    10/24/2021 14:50      51    50.4      0.19        69.3      70.0      54.3       3       6     129     178    1011    0.00
    10/24/2021 15:00      51    50.4      0.19        69.0      70.0      54.3       2       6      86      49    1011    0.00
    10/24/2021 15:10      51    50.7      0.19        69.5      70.0      54.3       3       6     113     163    1010    0.00
    10/24/2021 15:20      52    50.7      0.19        69.5      70.0      54.3       3       6     148     167    1010    0.00
    10/24/2021 15:30      53    50.8      0.19        69.1      70.0      54.3       4       7     152     155    1010    0.00
    10/24/2021 15:40      54    51.0      0.19        68.3      70.0      54.3       4       8     149     140    1010    0.00
    10/24/2021 15:50      55    50.9      0.19        67.7      70.0      54.3       4       8     131     137    1010    0.00
    10/24/2021 16:00      55    50.7      0.19        67.5      70.0      54.3       6      10     150     164    1010    0.00
    10/24/2021 16:10      55    50.3      0.19        67.0      70.0      54.3       5       9     140     129    1010    0.00
    10/24/2021 16:20      55    50.5      0.19        67.1      70.0      54.3       4       8     147     158    1010    0.00
    10/24/2021 16:30      55    50.0      0.19        66.8      70.0      54.3       4       7     137     132    1010    0.00
    10/24/2021 16:40      55    50.1      0.19        66.8      70.0      54.3       4       7     143     133    1010    0.00
    10/24/2021 16:50      55    50.3      0.19        66.9      70.0      54.3       3       7     175     176    1010    0.00
    10/24/2021 17:00      57    50.2      0.19        66.5      70.0      54.3       5       6     189     191    1010    0.00
    10/24/2021 17:10      57    50.1      0.19        65.8      70.0      54.3       5       6     188     208    1010    0.00
    10/24/2021 17:20      58    50.0      0.19        65.2      70.0      54.3       5       8     190     183    1010    0.00
    10/24/2021 17:30      58    49.7      0.19        64.5      70.0      54.3       5      11     215     249    1011    0.00
    10/24/2021 17:40      60    49.2      0.19        63.7      70.0      54.3       4       9     267     253    1011    0.00
    10/24/2021 17:50      62    49.3      0.19        62.9      70.0      54.3       5       9     259     244    1011    0.00
    10/24/2021 18:00      63    49.4      0.19        62.3      70.0      54.3       4       8     263     247    1011    0.00
    10/24/2021 18:10      64    49.3      0.19        61.8      70.0      54.3       4       8     264     247    1011    0.00
    10/24/2021 18:20      64    49.1      0.19        61.4      70.0      54.3       3       8     252     250    1011    0.00
    10/24/2021 18:30      65    48.9      0.19        61.0      70.0      54.3       2       6     249     238    1011    0.00
    10/24/2021 18:40      65    48.7      0.19        60.6      70.0      54.3       2       4     246     251    1011    0.00
    10/24/2021 18:50      65    48.4      0.19        60.2      70.0      54.3       2       4     250     261    1011    0.00
    10/24/2021 19:00      66    48.4      0.19        59.8      70.0      54.3       3       5     248     259    1011    0.00
    10/24/2021 19:10      66    48.3      0.19        59.5      70.0      54.3       3       5     248     250    1011    0.00
    10/24/2021 19:20      66    48.3      0.19        59.5      70.0      54.3       2       5     250     247    1011    0.00
    10/24/2021 19:30      66    48.1      0.19        59.5      70.0      54.3       2       3     266     218    1011    0.00
    10/24/2021 19:40      66    47.9      0.19        59.3      70.0      54.3       2       6     271     246    1012    0.00
    10/24/2021 19:50      66    47.9      0.19        59.1      70.0      54.3       2       4     259     254    1012    0.00
    10/24/2021 20:00      66    47.8      0.19        58.9      70.0      54.3       1       3     243     245    1012    0.00
    10/24/2021 20:10      68    47.6      0.19        58.3      70.0      54.3       0       0     226     225    1012    0.00
    10/24/2021 20:20      70    47.7      0.19        57.8      70.0      54.3       1       3     259     254    1012    0.00
    10/24/2021 20:30      71    48.0      0.19        57.5      70.0      54.3       0       0       0     263    1012    0.00
    10/24/2021 20:40      71    48.1      0.19        57.4      70.0      54.3       0       1     280     296    1012    0.00
    10/24/2021 20:50      71    48.1      0.19        57.3      70.0      54.3       0       0     297     302    1012    0.00
    10/24/2021 21:00      72    48.0      0.19        57.1      70.0      54.3       0       0     291     290    1012    0.00
    10/24/2021 21:10      72    48.1      0.19        56.9      70.0      54.3       0       1     296     296    1012    0.00
    10/24/2021 21:20      74    48.2      0.19        56.6      70.0      54.3       0       0       0     297    1012    0.00
    10/24/2021 21:30      75    48.3      0.19        56.4      70.0      54.3       0       0     300     305    1012    0.00
    10/24/2021 21:40      75    48.5      0.19        56.3      70.0      54.3       0       0     300     300    1012    0.00
    10/24/2021 21:50      76    48.5      0.19        56.0      70.0      54.3       0       0       0     300    1012    0.00
    10/24/2021 22:00      77    48.9      0.19        56.1      70.0      54.3       0       0       0     300    1012    0.00
    10/24/2021 22:10      77    48.9      0.19        56.0      70.0      54.3       0       0       0     298    1012    0.00
    10/24/2021 22:20      77    48.7      0.19        55.8      70.0      54.3       0       0       0     298    1012    0.00
    10/24/2021 22:30      77    48.5      0.19        55.5      70.0      54.3       0       1     107     107    1012    0.00
    10/24/2021 22:40      78    48.5      0.19        55.3      70.0      54.3       0       2      99     113    1012    0.00
    10/24/2021 22:50      79    48.8      0.19        55.4      70.0      54.3       0       2      80      88    1012    0.00
    10/24/2021 23:00      79    48.9      0.19        55.3      70.0      54.3       0       1     306     305    1012    0.00
    10/24/2021 23:10      79    48.8      0.19        55.1      70.0      54.3       0       0     306     306    1012    0.00
    10/24/2021 23:20      80    49.0      0.19        55.1      70.0      54.3       0       1     311     301    1012    0.00
    10/24/2021 23:30      81    49.0      0.19        54.9      70.0      54.3       0       0     320     320    1012    0.00
    10/24/2021 23:40      81    49.1      0.19        54.9      70.0      54.3       0       1     318     319    1012    0.00
    10/24/2021 23:50      81    48.9      0.19        54.6      70.0      54.2       1       3     313     295    1012    0.00
    10/25/2021 00:00      82    48.9      0.19        54.4      70.0      54.1       1       3     305     286    1012    0.00
    10/25/2021 00:10      81    49.1      0.19        54.8      55.0      54.6       0       1     313     313    1012    0.00
    10/25/2021 00:20      81    48.9      0.19        54.8      55.0      54.6       0       0       0     311    1012    0.00
    10/25/2021 00:30      80    48.9      0.19        54.7      55.0      54.5       0       1      85      83    1012    0.00
    10/25/2021 00:40      81    48.8      0.19        54.7      55.0      54.4       0       1      88      89    1012    0.00
    10/25/2021 00:50      81    49.1      0.19        54.9      55.1      54.4       0       0       0      88    1012    0.00
    10/25/2021 01:00      81    49.0      0.19        54.8      55.1      54.4       0       1      89      88    1012    0.00
    10/25/2021 01:10      81    49.5      0.19        55.2      55.5      54.4       0       0       0      91    1012    0.00
    10/25/2021 01:20      81    49.8      0.19        55.5      55.7      54.4       0       0       0      84    1012    0.00
    10/25/2021 01:30      81    49.9      0.19        55.6      55.8      54.4       0       2      89     100    1012    0.00
    10/25/2021 01:40      80    50.0      0.19        55.9      56.1      54.4       1       3      67      46    1012    0.00
    10/25/2021 01:50      79    49.9      0.19        56.1      56.3      54.4       0       2      61      64    1012    0.00
    10/25/2021 02:00      78    49.8      0.19        56.3      56.6      54.4       1       3      82      70    1012    0.00
    10/25/2021 02:10      78    49.6      0.19        56.3      56.6      54.4       0       3      96      97    1012    0.00
    10/25/2021 02:20      78    49.4      0.19        56.1      56.6      54.4       0       2     113      97    1012    0.00
    10/25/2021 02:30      79    49.5      0.19        56.1      56.6      54.4       0       2      67      82    1012    0.00
    10/25/2021 02:40      80    50.0      0.19        56.4      56.7      54.4       1       3      93      95    1011    0.00
    10/25/2021 02:50      81    50.8      0.19        56.7      56.9      54.4       2       3     101      82    1011    0.00
    10/25/2021 03:00      81    51.1      0.19        56.8      57.1      54.4       1       4      98     115    1011    0.00
    10/25/2021 03:10      82    51.3      0.19        56.9      57.1      54.4       1       3     125      93    1011    0.00
    10/25/2021 03:20      82    51.6      0.19        57.0      57.1      54.4       2       6     118     128    1011    0.00
    10/25/2021 03:30      83    51.7      0.19        56.9      57.1      54.4       2       5     130     151    1011    0.00
    10/25/2021 03:40      83    51.8      0.19        56.9      57.1      54.4       2       5     124     128    1011    0.00
    10/25/2021 03:50      83    51.8      0.19        56.8      57.1      54.4       2       5     113     143    1011    0.00
    10/25/2021 04:00      83    51.8      0.19        56.8      57.1      54.4       3       7     113     127    1011    0.00
    10/25/2021 04:10      83    51.8      0.19        56.9      57.1      54.4       3       6     119     129    1011    0.00
    10/25/2021 04:20      83    51.8      0.19        56.9      57.1      54.4       2       4     113      88    1011    0.00
    10/25/2021 04:30      83    51.8      0.19        57.0      57.1      54.4       3       7     106      96    1011    0.00
    10/25/2021 04:40      83    51.9      0.19        57.0      57.2      54.4       2       6     114     136    1011    0.00
    10/25/2021 04:50      83    51.9      0.19        57.0      57.2      54.4       4       8     136     118    1011    0.00
    10/25/2021 05:00      84    52.1      0.19        57.0      57.2      54.4       4       7     137     127    1011    0.00
    10/25/2021 05:10      85    52.3      0.19        57.0      57.2      54.4       3       6     140     148    1011    0.00
    10/25/2021 05:20      86    52.5      0.19        56.8      57.2      54.4       3       7     150     155    1011    0.00
    10/25/2021 05:30      87    52.6      0.20        56.7      57.2      54.4       4       8     156     146    1011    0.01
    10/25/2021 05:40      87    52.8      0.20        56.7      57.2      54.4       4       8     151     153    1011    0.00
    10/25/2021 05:50      88    53.0      0.20        56.7      57.2      54.4       4       9     154     121    1011    0.00
    10/25/2021 06:00      88    53.2      0.21        56.8      57.2      54.4       4       7     153     163    1011    0.01
    10/25/2021 06:10      88    53.3      0.21        56.8      57.2      54.4       3       5     148     133    1011    0.00
    10/25/2021 06:20      88    53.4      0.21        56.9      57.2      54.4       2       4     125     131    1011    0.00
    10/25/2021 06:30      88    53.5      0.21        56.9      57.2      54.4       3       6     154     155    1011    0.00
    10/25/2021 06:40      89    53.5      0.21        56.9      57.2      54.4       3       6     143     120    1011    0.00
    10/25/2021 06:50      89    53.6      0.21        56.9      57.2      54.4       3       8     148     101    1011    0.00
    10/25/2021 07:00      89    53.6      0.21        56.9      57.2      54.4       4       8     151     176    1011    0.00
    10/25/2021 07:10      89    53.8      0.21        57.0      57.2      54.4       4      10     147     152    1011    0.00
    10/25/2021 07:20      89    53.8      0.21        57.1      57.2      54.4       6      10     152     136    1011    0.00
    10/25/2021 07:30      89    53.8      0.21        57.1      57.3      54.4       5      10     147     170    1011    0.00
    10/25/2021 07:40      89    53.8      0.21        57.0      57.3      54.4       6      11     146     144    1011    0.00
    10/25/2021 07:50      89    53.7      0.21        56.9      57.3      54.4       7      13     151     131    1011    0.00
    10/25/2021 08:00      89    53.7      0.21        56.9      57.3      54.4       6      11     153     182    1011    0.00
    10/25/2021 08:10      89    53.9      0.21        57.0      57.3      54.4       4      10     138     137    1011    0.00
    10/25/2021 08:20      89    53.8      0.21        57.0      57.3      54.4       5      13     135     134    1011    0.00
    10/25/2021 08:30      89    53.9      0.21        57.0      57.3      54.4       6      11     142     138    1011    0.00
    10/25/2021 08:40      89    54.0      0.21        57.1      57.3      54.4       6      11     144     106    1011    0.00
    10/25/2021 08:50      90    54.1      0.21        57.2      57.3      54.4       6      12     144     140    1011    0.00
    10/25/2021 09:00      90    54.2      0.21        57.2      57.5      54.4       6      13     148     118    1010    0.00
    10/25/2021 09:10      90    54.4      0.21        57.4      57.6      54.4       6      11     145     139    1011    0.00
    10/25/2021 09:20      89    54.3      0.21        57.4      57.6      54.4       8      14     145     142    1010    0.00
    10/25/2021 09:30      89    54.3      0.21        57.3      57.6      54.4       9      16     151     131    1010    0.00
    10/25/2021 09:40      90    54.4      0.22        57.4      57.6      54.4       9      17     150     153    1010    0.01
    10/25/2021 09:50      90    54.5      0.23        57.6      57.8      54.4       7      14     145     137    1010    0.01
    10/25/2021 10:00      90    54.7      0.23        57.7      58.0      54.4       6      13     139     135    1010    0.00
    10/25/2021 10:10      90    54.9      0.23        57.9      58.1      54.4       6      15     139     129    1010    0.00
    10/25/2021 10:20      90    55.0      0.23        58.0      58.3      54.4       7      15     143     173    1010    0.00
    10/25/2021 10:30      90    55.1      0.23        58.1      58.3      54.4       8      13     153     155    1010    0.00
    10/25/2021 10:40      90    55.1      0.24        58.1      58.3      54.4       8      20     146     170    1010    0.01
    10/25/2021 10:50      90    55.0      0.24        58.0      58.3      54.4       8      14     147     139    1010    0.00
    10/25/2021 11:00      90    55.1      0.25        58.1      58.3      54.4       7      12     148     161    1010    0.01
    10/25/2021 11:10      90    55.0      0.27        58.0      58.3      54.4       8      18     148     143    1010    0.02
    10/25/2021 11:20      90    55.1      0.29        58.1      58.4      54.4       7      15     141     151    1010    0.02
    10/25/2021 11:30      90    55.2      0.31        58.1      58.4      54.4       6      10     145     130    1010    0.02
    10/25/2021 11:40      90    55.3      0.34        58.2      58.5      54.4       6      15     144     136    1009    0.03
    10/25/2021 11:50      90    55.5      0.37        58.4      58.7      54.4       5      10     161     163    1009    0.03
    10/25/2021 12:00      89    54.7      0.50        57.8      58.7      54.4       6      14     228     259    1010    0.13
    10/25/2021 12:10      90    53.1      0.56        56.1      58.7      54.4       4       8     222     247    1010    0.06
    10/25/2021 12:20      90    53.0      0.60        56.0      58.7      54.4       4       9     218     263    1010    0.04
    10/25/2021 12:30      90    53.0      0.63        56.0      58.7      54.4       5      10     201     194    1009    0.03
    10/25/2021 12:40      90    53.1      0.65        56.0      58.7      54.4       6       9     185     187    1009    0.02
    10/25/2021 12:50      90    53.2      0.67        56.1      58.7      54.4       7      12     178     190    1009    0.02
    10/25/2021 13:00      90    53.3      0.69        56.2      58.7      54.4       5      10     194     188    1009    0.02
    10/25/2021 13:10      90    53.1      0.71        56.1      58.7      54.4       5      15     229     244    1009    0.02
    10/25/2021 13:20      90    53.0      0.71        56.0      58.7      54.4       5      11     241     243    1009    0.00
    10/25/2021 13:30      90    53.1      0.71        56.1      58.7      54.4       5      12     249     247    1009    0.00
    10/25/2021 13:40      89    53.4      0.71        56.5      58.7      54.4       4      10     248     265    1009    0.00
    10/25/2021 13:50      89    52.9      0.71        56.1      58.7      54.4       4      11     236     242    1009    0.00
    10/25/2021 14:00      88    52.9      0.71        56.3      58.7      54.4       4       7     239     260    1009    0.00
    10/25/2021 14:10      88    52.9      0.71        56.3      58.7      54.4       4       7     242     247    1009    0.00
    10/25/2021 14:20      88    52.9      0.71        56.4      58.7      54.4       2       6     249     243    1009    0.00
    10/25/2021 14:30      88    53.0      0.72        56.5      58.7      54.4       2       4     243     242    1009    0.01
    10/25/2021 14:40      88    53.1      0.72        56.6      58.7      54.4       2       5     206     216    1009    0.00
    10/25/2021 14:50      88    53.1      0.72        56.6      58.7      54.4       3       7     208     220    1009    0.00
    10/25/2021 15:00      88    53.4      0.72        56.9      58.7      54.4       2       5     207     177    1009    0.00
    10/25/2021 15:10      87    52.8      0.72        56.5      58.7      54.4       4       9     212     191    1009    0.00
    10/25/2021 15:20      87    52.4      0.72        56.1      58.7      54.4       3       5     231     235    1009    0.00
    10/25/2021 15:30      88    52.5      0.72        56.1      58.7      54.4       3       7     247     253    1009    0.00
    10/25/2021 15:40      87    52.5      0.72        56.2      58.7      54.4       4       8     263     243    1009    0.00
    10/25/2021 15:50      87    52.5      0.72        56.2      58.7      54.4       3       9     251     229    1009    0.00
    10/25/2021 16:00      87    52.4      0.72        56.1      58.7      54.4       4       8     255     244    1009    0.00
    10/25/2021 16:10      87    52.3      0.72        56.1      58.7      54.4       4       9     250     277    1009    0.00
    10/25/2021 16:20      86    52.2      0.72        56.1      58.7      54.4       5       9     246     257    1009    0.00
    10/25/2021 16:30      86    51.7      0.72        55.8      58.7      54.4       4      11     256     252    1009    0.00
    10/25/2021 16:40      85    51.4      0.72        55.6      58.7      54.4       2       5     254     250    1009    0.00
    10/25/2021 16:50      85    51.0      0.72        55.3      58.7      54.4       3       8     238     260    1010    0.00
    10/25/2021 17:00      86    50.9      0.72        55.2      58.7      54.4       3       6     242     249    1010    0.00
    10/25/2021 17:10      86    51.0      0.72        55.1      58.7      54.4       2       5     242     253    1010    0.00
    10/25/2021 17:20      86    50.9      0.72        55.0      58.7      54.4       0       3     329     230    1010    0.00
    10/25/2021 17:30      86    50.8      0.72        54.8      58.7      54.4       0       2      21      41    1010    0.00
    10/25/2021 17:40      87    50.7      0.72        54.6      58.7      54.3       0       1     319     350    1010    0.00
    10/25/2021 17:50      87    50.6      0.72        54.4      58.7      54.1       2       5     260     281    1011    0.00
    10/25/2021 18:00      87    50.9      0.72        54.6      58.7      54.1       2       3     280     248    1011    0.00
    10/25/2021 18:10      87    50.8      0.72        54.5      58.7      54.1       2       3     296     286    1011    0.00
    10/25/2021 18:20      87    50.5      0.72        54.3      58.7      53.9       0       2     318     337    1011    0.00
    10/25/2021 18:30      87    50.1      0.72        53.8      58.7      53.4       1       4     247     248    1011    0.00
    10/25/2021 18:40      88    49.9      0.72        53.5      58.7      53.2       3       4     254     241    1011    0.00
    10/25/2021 18:50      88    49.9      0.72        53.4      58.7      53.2       1       2     240     263    1011    0.00
    10/25/2021 19:00      88    49.7      0.72        53.2      58.7      52.9       2       4     256     255    1011    0.00
    10/25/2021 19:10      88    49.7      0.72        53.1      58.7      52.9       1       4     312     255    1011    0.00
    10/25/2021 19:20      88    49.7      0.72        53.1      58.7      52.8       0       1     317     321    1012    0.00
    10/25/2021 19:30      88    49.4      0.72        52.8      58.7      52.5       0       2     310     328    1012    0.00
    10/25/2021 19:40      88    49.0      0.72        52.4      58.7      51.9       0       2     250     246    1012    0.00
    10/25/2021 19:50      89    48.7      0.72        52.0      58.7      51.8       0       1     332     331    1012    0.00
    10/25/2021 20:00      89    48.7      0.72        51.9      58.7      51.7       0       2     349     350    1012    0.00
    10/25/2021 20:10      89    49.1      0.72        52.2      58.7      51.7       1       3     340     348    1012    0.00
    10/25/2021 20:20      89    48.8      0.72        52.0      58.7      51.7       0       4      32      33    1012    0.00
    10/25/2021 20:30      89    48.8      0.72        52.0      58.7      51.7       0       3     151     139    1012    0.00
    10/25/2021 20:40      89    48.4      0.72        51.6      58.7      51.2       0       3     125     135    1012    0.00
    10/25/2021 20:50      89    48.6      0.72        51.7      58.7      51.2       2       5      76      36    1012    0.00
    10/25/2021 21:00      89    48.3      0.72        51.4      58.7      50.8       2       5     265     244    1012    0.00
    10/25/2021 21:10      89    48.1      0.72        51.3      58.7      50.8       2       7     303     243    1012    0.00
    10/25/2021 21:20      89    48.1      0.72        51.2      58.7      50.8       1       3     267     166    1013    0.00
    10/25/2021 21:30      89    47.6      0.72        50.8      58.7      50.5       1       4     259     196    1013    0.00
    10/25/2021 21:40      89    47.3      0.72        50.5      58.7      50.3       0       2       4     329    1013    0.00
    10/25/2021 21:50      89    47.1      0.72        50.4      58.7      50.0       1       3     224     208    1013    0.00
    10/25/2021 22:00      89    47.0      0.72        50.2      58.7      49.9       1       5      50     178    1013    0.00
    10/25/2021 22:10      88    46.8      0.72        50.0      58.7      49.9       2       4     166     170    1013    0.00
    10/25/2021 22:20      88    46.6      0.72        49.9      58.7      49.7       2       4     275     198    1013    0.00
    10/25/2021 22:30      88    46.0      0.72        49.4      58.7      49.2       3       4     196     178    1013    0.00
    10/25/2021 22:40      88    46.3      0.72        49.6      58.7      49.2       2       3     243     164    1013    0.00
    10/25/2021 22:50      89    46.3      0.72        49.6      58.7      49.2       2       3     238     274    1013    0.00
    10/25/2021 23:00      89    46.7      0.72        49.9      58.7      49.2       2       4     273     254    1013    0.00
    10/25/2021 23:10      89    46.6      0.72        49.8      58.7      49.2       2       4     270     243    1014    0.00
    10/25/2021 23:20      89    46.3      0.72        49.5      58.7      49.2       0       3     283     279    1014    0.00
    10/25/2021 23:30      89    46.1      0.72        49.3      58.7      49.1       0       3     278     238    1014    0.00
    10/25/2021 23:40      89    46.2      0.72        49.3      58.7      49.1       1       2     328     329    1014    0.00
    10/25/2021 23:50      89    46.1      0.72        49.3      58.7      49.0       0       2     320     302    1014    0.00
    10/26/2021 00:00      89    46.0      0.72        49.1      58.7      48.8       1       2     321     326    1014    0.00
    10/26/2021 00:10      89    45.5      0.72        48.6      49.3      48.1       1       4      77      42    1014    0.00
    10/26/2021 00:20      89    45.5      0.72        48.6      49.3      48.1       0       2     330     304    1014    0.00
    10/26/2021 00:30      89    45.3      0.72        48.4      49.3      48.0       0       2     302      32    1014    0.00
    10/26/2021 00:40      89    45.0      0.72        48.0      49.3      47.9       0       3     160     206    1014    0.00
    10/26/2021 00:50      89    44.8      0.73        47.9      49.3      47.5       1       4     268     261    1014    0.01
    10/26/2021 01:00      89    44.9      0.73        48.0      49.3      47.5       1       3     315     344    1015    0.00
    10/26/2021 01:10      89    44.8      0.73        47.9      49.3      47.5       2       5     260     244    1015    0.00
    10/26/2021 01:20      89    45.0      0.73        48.0      49.3      47.5       1       4     277     261    1015    0.00
    10/26/2021 01:30      89    45.1      0.73        48.1      49.3      47.5       0       2     353     328    1015    0.00
    10/26/2021 01:40      89    44.8      0.73        47.9      49.3      47.5       0       2      16      32    1014    0.00
    10/26/2021 01:50      89    44.4      0.73        47.5      49.3      47.3       1       5     189     193    1014    0.00
    10/26/2021 02:00      89    44.4      0.73        47.5      49.3      47.3       2       5     234     207    1015    0.00
    10/26/2021 02:10      89    44.9      0.73        48.0      49.3      47.3       2       5     270     211    1015    0.00
    10/26/2021 02:20      89    45.0      0.73        48.1      49.3      47.3       2       5     223     255    1015    0.00
    10/26/2021 02:30      89    45.0      0.73        48.1      49.3      47.3       2       4     223     192    1015    0.00
    10/26/2021 02:40      89    44.9      0.73        48.0      49.3      47.3       2       5     247     205    1015    0.00
    10/26/2021 02:50      88    44.9      0.73        48.2      49.3      47.3       0       3     344     160    1015    0.00
    10/26/2021 03:00      88    44.5      0.73        47.9      49.3      47.3       2       6     121     107    1015    0.00
    10/26/2021 03:10      88    44.3      0.73        47.7      49.3      47.3       1       3     133     137    1015    0.00
    10/26/2021 03:20      88    44.2      0.73        47.5      49.3      47.3       1       4       7      55    1015    0.00
    10/26/2021 03:30      88    43.8      0.73        47.2      49.3      47.0       2       4     108     140    1015    0.00
    10/26/2021 03:40      88    44.0      0.73        47.3      49.3      47.0       1       3     114     104    1015    0.00
    10/26/2021 03:50      88    43.5      0.73        46.9      49.3      46.6       2       3     126      52    1015    0.00
    10/26/2021 04:00      88    43.8      0.73        47.1      49.3      46.6       0       2      22      40    1015    0.00
    10/26/2021 04:10      88    43.1      0.73        46.5      49.3      46.2       1       3     128      92    1016    0.00
    10/26/2021 04:20      89    43.6      0.73        46.8      49.3      46.2       2       3     139     257    1016    0.00
    10/26/2021 04:30      88    43.7      0.73        46.9      49.3      46.2       1       4     179     260    1016    0.00
    10/26/2021 04:40      88    43.2      0.73        46.5      49.3      46.2       1       3     159     184    1016    0.00
    10/26/2021 04:50      88    43.1      0.73        46.4      49.3      46.2       1       3     207     251    1016    0.00
    10/26/2021 05:00      88    43.2      0.73        46.4      49.3      46.2       0       3     307     294    1016    0.00
    10/26/2021 05:10      89    42.9      0.73        46.2      49.3      45.8       2       6     280     253    1016    0.00
    10/26/2021 05:20      89    43.1      0.73        46.2      49.3      45.8       2       4     311     210    1016    0.00
    10/26/2021 05:30      89    43.2      0.73        46.4      49.3      45.8       0       2     274       3    1016    0.00
    10/26/2021 05:40      89    42.7      0.73        45.9      49.3      45.5       2       4     185     161    1016    0.00
    10/26/2021 05:50      89    42.8      0.73        45.9      49.3      45.5       1       3     243     298    1016    0.00
    10/26/2021 06:00      89    43.1      0.73        46.2      49.3      45.5       1       3     287     247    1016    0.00
    10/26/2021 06:10      89    43.2      0.73        46.3      49.3      45.5       0       2     278     324    1016    0.00
    10/26/2021 06:20      89    43.0      0.73        46.1      49.3      45.5       1       5     272     228    1016    0.00
    10/26/2021 06:30      89    43.2      0.73        46.3      49.3      45.5       1       4     290     250    1017    0.00
    10/26/2021 06:40      89    43.9      0.73        47.0      49.3      45.5       2       4     231     197    1017    0.00
    10/26/2021 06:50      88    44.6      0.73        47.9      49.3      45.5       2       4     220     216    1017    0.00
    10/26/2021 07:00      87    45.6      0.73        49.0      49.7      45.5       2       6     198     196    1017    0.00
    10/26/2021 07:10      85    46.2      0.73        50.1      50.6      45.5       5       8     181     176    1017    0.00
    10/26/2021 07:20      81    46.6      0.73        51.4      52.4      45.5       2       4     127     188    1017    0.00
    10/26/2021 07:30      75    46.4      0.73        53.0      53.6      45.5       2       4     148     167    1017    0.00
    10/26/2021 07:40      70    45.4      0.73        54.0      54.3      45.5       2       6     159     153    1018    0.00
    10/26/2021 07:50      70    44.9      0.73        54.6      55.4      45.5       2       7     181     189    1018    0.00
    10/26/2021 08:00      66    45.7      0.73        56.1      57.0      45.5       3       6     182     198    1018    0.00
    10/26/2021 08:10      56    43.8      0.73        57.6      58.3      45.5       2       8     282     260    1018    0.00
    10/26/2021 08:20      56    43.8      0.73        58.9      59.1      45.5       2       5     222     180    1018    0.00
    10/26/2021 08:30      47    39.9      0.73        59.0      59.5      45.5       4      12     325      12    1018    0.00
    10/26/2021 08:40      44    38.7      0.73        59.7      60.1      45.5       5      11     328     325    1018    0.00
    10/26/2021 08:50      46    39.4      0.73        60.6      61.2      45.5       4      11     337      -0    1018    0.00
    10/26/2021 09:00      43    38.7      0.73        61.1      61.5      45.5       5      14     339     334    1018    0.00
    10/26/2021 09:10      40    39.8      0.73        62.0      62.8      45.5       3      11     324     328    1018    0.00
    10/26/2021 09:20      41    39.0      0.73        62.9      63.4      45.5       3       8     337     341    1018    0.00
    10/26/2021 09:30      39    37.8      0.73        63.3      63.7      45.5       5      13     316     322    1018    0.00
    10/26/2021 09:40      36    38.2      0.73        63.9      64.6      45.5       3       7     342     343    1018    0.00
    10/26/2021 09:50      36    36.9      0.73        64.0      64.6      45.5       4      11     335     354    1018    0.00
    10/26/2021 10:00      37    38.2      0.73        65.0      65.6      45.5       2       6     309     323    1018    0.00
    10/26/2021 10:10      36    38.3      0.73        65.8      66.1      45.5       3       7     307     334    1018    0.00
    10/26/2021 10:20      35    37.6      0.73        65.8      66.2      45.5       3      12     324       6    1018    0.00
    10/26/2021 10:30      35    38.0      0.73        66.3      66.7      45.5       4       9     280     254    1018    0.00
    10/26/2021 10:40      35    37.2      0.73        66.8      67.2      45.5       4      11     304     342    1018    0.00
    10/26/2021 10:50      34    37.0      0.73        66.9      67.3      45.5       4      11     299     276    1018    0.00
    10/26/2021 11:00      32    37.5      0.73        67.5      67.9      45.5       5      11     281     263    1018    0.00
    10/26/2021 11:10      28    36.7      0.73        68.2      69.0      45.5       4       9     281     243    1018    0.00
    10/26/2021 11:20      28    36.2      0.73        68.8      69.2      45.5       4      11     332     355    1018    0.00
    10/26/2021 11:30      30    35.4      0.73        68.2      69.2      45.5       7      17     328     343    1018    0.00
    10/26/2021 11:40      30    34.4      0.73        67.3      69.2      45.5       8      17     327     332    1017    0.00
    10/26/2021 11:50      32    35.4      0.73        67.5      69.2      45.5       8      16     331     349    1017    0.00
    10/26/2021 12:00      31    35.2      0.73        67.5      69.2      45.5       8      18     325      46    1017    0.00
    10/26/2021 12:10      28    34.8      0.73        67.5      69.2      45.5       9      19     329     328    1017    0.00
    10/26/2021 12:20      29    34.5      0.73        67.8      69.2      45.5       8      15     325     342    1017    0.00
    10/26/2021 12:30      29    34.6      0.73        68.5      69.2      45.5       7      15     326     304    1017    0.00
    10/26/2021 12:40      28    35.5      0.73        69.0      69.6      45.5       5      14     329     343    1017    0.00
    10/26/2021 12:50      28    34.9      0.73        69.4      69.7      45.5       6      15     339     334    1017    0.00
    10/26/2021 13:00      28    35.3      0.73        69.4      69.7      45.5       6      15     320     324    1017    0.00
    10/26/2021 13:10      28    36.0      0.73        69.6      70.1      45.5       5      12     313     316    1017    0.00
    10/26/2021 13:20      28    34.5      0.73        69.4      70.1      45.5       6      12     317     315    1017    0.00
    10/26/2021 13:30      26    34.6      0.73        69.7      70.1      45.5       7      14     313     295    1017    0.00
    10/26/2021 13:40      26    34.1      0.73        69.6      70.1      45.5       6      13     319       8    1017    0.00
    10/26/2021 13:50      26    33.0      0.73        69.9      70.3      45.5       6      13     329     332    1017    0.00
    10/26/2021 14:00      26    33.1      0.73        69.9      70.3      45.5       7      20     331     318    1017    0.00
    10/26/2021 14:10      27    33.0      0.73        69.6      70.3      45.5       8      20     331     341    1017    0.00
    10/26/2021 14:20      27    33.9      0.73        69.9      70.3      45.5       6      14     335       0    1017    0.00
    10/26/2021 14:30      27    34.3      0.73        70.0      70.3      45.5       6      15     328     339    1017    0.00
    10/26/2021 14:40      27    34.7      0.73        70.0      70.5      45.5       6      13     321     299    1017    0.00
    10/26/2021 14:50      28    34.4      0.73        69.3      70.5      45.5       6      16     322     325    1017    0.00
    10/26/2021 15:00      28    34.4      0.73        69.1      70.5      45.5       7      13     321     336    1017    0.00
    10/26/2021 15:10      29    34.4      0.73        68.8      70.5      45.5       6      15     318       6    1017    0.00
    10/26/2021 15:20      29    34.6      0.73        68.7      70.5      45.5       5       9     318     341    1017    0.00
    10/26/2021 15:30      29    34.7      0.73        68.6      70.5      45.5       4       9     322     349    1017    0.00
    10/26/2021 15:40      29    34.9      0.73        68.2      70.5      45.5       4      10     311     323    1017    0.00
    10/26/2021 15:50      30    34.5      0.73        67.6      70.5      45.5       4      11     314     351    1017    0.00
    10/26/2021 16:00      30    34.8      0.73        67.3      70.5      45.5       4       9     317     342    1017    0.00
    10/26/2021 16:10      30    34.5      0.73        67.0      70.5      45.5       5      11     321     339    1017    0.00
    10/26/2021 16:20      30    34.2      0.73        66.8      70.5      45.5       6      12     325     335    1017    0.00
    10/26/2021 16:30      30    34.3      0.73        66.5      70.5      45.5       4      10     315     283    1017    0.00
    10/26/2021 16:40      31    34.4      0.73        66.0      70.5      45.5       4      11     316     324    1017    0.00
    10/26/2021 16:50      31    34.0      0.73        65.7      70.5      45.5       6      12     320     349    1017    0.00
    10/26/2021 17:00      31    33.7      0.73        65.4      70.5      45.5       6      13     326     304    1017    0.00
    10/26/2021 17:10      31    33.4      0.73        65.0      70.5      45.5       6      14     318     340    1017    0.00
    10/26/2021 17:20      31    33.4      0.73        64.4      70.5      45.5       6      11     321     353    1017    0.00
    10/26/2021 17:30      32    33.3      0.73        64.0      70.5      45.5       5      12     319     354    1017    0.00
    10/26/2021 17:40      32    33.1      0.73        63.7      70.5      45.5       5      12     328     354    1017    0.00
    10/26/2021 17:50      32    33.2      0.73        63.5      70.5      45.5       5      15     334     336    1017    0.00
    10/26/2021 18:00      33    33.4      0.73        63.2      70.5      45.5       6      12     331     351    1017    0.00
    10/26/2021 18:10      34    33.5      0.73        62.5      70.5      45.5       6      10     330     332    1017    0.00
    10/26/2021 18:20      35    33.8      0.73        62.0      70.5      45.5       5      13     321       7    1018    0.00
    10/26/2021 18:30      35    33.9      0.73        62.0      70.5      45.5       6      11     319     313    1018    0.00
    10/26/2021 18:40      35    33.8      0.73        61.9      70.5      45.5       5      11     316     294    1018    0.00
    10/26/2021 18:50      36    33.9      0.73        61.5      70.5      45.5       5       8     306     310    1017    0.00
    10/26/2021 19:00      36    34.0      0.73        61.4      70.5      45.5       5       9     312     320    1017    0.00
    10/26/2021 19:10      35    34.1      0.73        61.4      70.5      45.5       4      10     315     324    1018    0.00
    10/26/2021 19:20      36    34.0      0.73        61.3      70.5      45.5       2       8     336     316    1018    0.00
    10/26/2021 19:30      37    34.8      0.73        61.3      70.5      45.5       3       8     344     349    1018    0.00
    10/26/2021 19:40      36    34.9      0.73        61.9      70.5      45.5       5      17     333       2    1018    0.00
    10/26/2021 19:50      36    35.1      0.73        62.5      70.5      45.5       7      19     334     346    1018    0.00
    10/26/2021 20:00      35    35.0      0.73        62.8      70.5      45.5       6      16     339     348    1018    0.00
    10/26/2021 20:10      36    34.9      0.73        62.7      70.5      45.5       6      13     353     344    1018    0.00
    10/26/2021 20:20      36    35.0      0.73        62.5      70.5      45.5       6      15     347     342    1018    0.00
    10/26/2021 20:30      36    34.9      0.73        62.1      70.5      45.5       4      13       2      13    1018    0.00
    10/26/2021 20:40      35    34.4      0.73        62.5      70.5      45.5       4      11     350     309    1018    0.00
    10/26/2021 20:50      36    34.6      0.73        62.4      70.5      45.5       3       8     292     296    1018    0.00
    10/26/2021 21:00      35    34.6      0.73        61.7      70.5      45.5       3       7     129     168    1018    0.00
    10/26/2021 21:10      34    34.0      0.73        62.5      70.5      45.5       4      11     351       6    1018    0.00
    10/26/2021 21:20      34    33.7      0.73        62.5      70.5      45.5       3       9     325     334    1019    0.00
    10/26/2021 21:30      34    33.7      0.73        62.6      70.5      45.5       4      14     323     314    1019    0.00
    10/26/2021 21:40      34    33.5      0.73        62.5      70.5      45.5       4      12     305     343    1019    0.00
    10/26/2021 21:50      34    33.7      0.73        62.2      70.5      45.5       3       7     275     324    1019    0.00
    10/26/2021 22:00      33    33.5      0.73        62.6      70.5      45.5       4      12     315     354    1019    0.00
    10/26/2021 22:10      33    33.1      0.73        63.1      70.5      45.5       2       6     330     304    1019    0.00
    10/26/2021 22:20      35    33.7      0.73        62.3      70.5      45.5       2       6     172     145    1019    0.00
    10/26/2021 22:30      36    34.0      0.73        61.1      70.5      45.5       2       5     157     143    1019    0.00
    10/26/2021 22:40      36    34.3      0.73        60.5      70.5      45.5       2      10     345     320    1019    0.00
    10/26/2021 22:50      35    33.8      0.73        61.9      70.5      45.5       2       7     249     351    1019    0.00
    10/26/2021 23:00      35    34.0      0.73        61.5      70.5      45.5       3       6     318     319    1019    0.00
    10/26/2021 23:10      36    34.0      0.73        61.6      70.5      45.5       2       5     307     347    1019    0.00
    10/26/2021 23:20      35    34.0      0.73        61.5      70.5      45.5       3       8     317     333    1019    0.00
    10/26/2021 23:30      35    34.0      0.73        61.9      70.5      45.5       2       6     354      49    1019    0.00
    10/26/2021 23:40      30    32.2      0.73        62.8      70.5      45.5       5      12     341     340    1019    0.00
    10/26/2021 23:50      32    31.7      0.73        63.5      70.5      45.5       3       9     325     321    1019    0.00
    10/27/2021 00:00      35    32.9      0.73        62.0      70.5      45.5       2       6     281     309    1019    0.00
    10/27/2021 00:10      39    33.9      0.73        60.0      61.0      59.0       0       2     225     313    1019    0.00
    10/27/2021 00:20      41    34.5      0.73        58.6      61.0      58.2       2       5     263     261    1019    0.00
    10/27/2021 00:30      43    35.2      0.73        57.9      61.0      57.3       2       4     288     247    1019    0.00
    10/27/2021 00:40      44    35.4      0.73        57.1      61.0      56.8       2       5     279     253    1019    0.00
    10/27/2021 00:50      45    35.4      0.73        56.7      61.0      56.4       0       2     319     285    1019    0.00
    10/27/2021 01:00      40    35.1      0.73        56.9      61.0      56.2       3       5     278     309    1019    0.00
    10/27/2021 01:10      39    34.0      0.73        58.7      61.0      56.2       2       4     181     245    1019    0.00
    10/27/2021 01:20      41    34.3      0.73        58.6      61.0      56.2       1       3     158     121    1019    0.00
    10/27/2021 01:30      42    34.4      0.73        57.8      61.0      56.2       2       3     160     177    1019    0.00
    10/27/2021 01:40      43    34.6      0.73        57.1      61.0      56.2       2       4     158     163    1019    0.00
    10/27/2021 01:50      43    34.5      0.73        56.8      61.0      56.2       1       4     265     251    1019    0.00
    10/27/2021 02:00      40    34.2      0.73        56.8      61.0      56.2       2       4     322       0    1019    0.00
    10/27/2021 02:10      33    31.4      0.73        58.4      61.0      56.2       2       4     293     272    1019    0.00
    10/27/2021 02:20      28    30.1      0.73        61.3      63.1      56.2       2       6     307       0    1019    0.00
    10/27/2021 02:30      26    29.2      0.73        63.9      64.5      56.2       4       8     309     322    1019    0.00
    10/27/2021 02:40      26    28.5      0.73        64.1      64.5      56.2       3       6     311     328    1019    0.00
    10/27/2021 02:50      37    31.7      0.73        62.4      64.5      56.2       2       5     230     285    1019    0.00
    10/27/2021 03:00      43    33.7      0.73        58.3      64.5      56.2       2       6     228     253    1019    0.00
    10/27/2021 03:10      46    35.2      0.73        56.3      64.5      55.6       0       2     182     244    1019    0.00
    10/27/2021 03:20      48    35.5      0.73        55.1      64.5      54.7       1       4     278     260    1019    0.00
    10/27/2021 03:30      43    34.6      0.73        55.1      64.5      54.6       3       6     260     250    1019    0.00
    10/27/2021 03:40      35    31.3      0.73        57.6      64.5      54.6       3       6     291     295    1019    0.00
    10/27/2021 03:50      32    30.1      0.73        58.8      64.5      54.6       2       4     310     282    1019    0.00
    10/27/2021 04:00      32    29.3      0.73        60.5      64.5      54.6       2       5     274     252    1019    0.00
    10/27/2021 04:10      35    30.1      0.73        59.3      64.5      54.6       3       5     289     255    1019    0.00
    10/27/2021 04:20      36    30.5      0.73        57.9      64.5      54.6       1       4     265     251    1019    0.00
    10/27/2021 04:30      41    31.8      0.73        56.7      64.5      54.6       2       4     256     245    1019    0.00
    10/27/2021 04:40      37    31.5      0.73        56.0      64.5      54.6       2       7     238     248    1019    0.00
    10/27/2021 04:50      34    30.4      0.73        57.4      64.5      54.6       2       3     143     140    1019    0.00
    10/27/2021 05:00      33    29.3      0.73        59.4      64.5      54.6       3       9     157     155    1019    0.00
    10/27/2021 05:10      35    30.7      0.73        58.6      64.5      54.6       3       5     123     163    1019    0.00
    10/27/2021 05:20      35    30.5      0.73        58.3      64.5      54.6       2       5      60     134    1019    0.00
    10/27/2021 05:30      29    30.2      0.73        59.5      64.5      54.6       4      12     337     354    1019    0.00
    10/27/2021 05:40      29    30.0      0.73        62.7      64.5      54.6       3       7     307     292    1019    0.00
    10/27/2021 05:50      30    30.1      0.73        62.5      64.5      54.6       3       5     299     353    1020    0.00
    10/27/2021 06:00      29    29.6      0.73        62.5      64.5      54.6       3       9     340     340    1019    0.00
    10/27/2021 06:10      27    29.4      0.73        62.9      64.5      54.6       5      12     331     327    1020    0.00
    10/27/2021 06:20      27    29.5      0.73        63.5      64.5      54.6       5      12     328       4    1020    0.00
    10/27/2021 06:30      28    29.7      0.73        63.9      64.5      54.6       4      13     335     333    1020    0.00
    10/27/2021 06:40      28    30.1      0.73        63.8      64.5      54.6       4       9     327     334    1020    0.00
    10/27/2021 06:50      29    30.8      0.73        63.4      64.5      54.6       3       8     359     313    1020    0.00
    10/27/2021 07:00      27    30.5      0.73        64.7      65.7      54.6       4       8      29      44    1020    0.00
    10/27/2021 07:10      26    31.2      0.73        65.9      66.5      54.6       4       9       0     345    1020    0.00
    10/27/2021 07:20      27    31.7      0.73        66.9      67.2      54.6       2       6     344       8    1020    0.00
    10/27/2021 07:30      25    31.8      0.73        67.4      68.3      54.6       3       9     334      50    1020    0.00
    10/27/2021 07:40      24    30.8      0.73        69.0      69.8      54.6       4       9       9     344    1020    0.00
    10/27/2021 07:50      23    31.1      0.73        70.1      70.7      54.6       3      12     351     312    1020    0.00
    10/27/2021 08:00      22    30.4      0.73        70.4      70.8      54.6       5      14     323     340    1020    0.00
    10/27/2021 08:10      21    30.0      0.73        70.9      71.3      54.6       3      10     345     289    1020    0.00
    10/27/2021 08:20      29    33.4      0.73        70.0      71.3      54.6       2       5     127     151    1020    0.00
    10/27/2021 08:30      26    32.7      0.73        69.0      71.3      54.6       2       6      53      65    1020    0.00
    10/27/2021 08:40      23    32.4      0.73        70.4      71.7      54.6       2      10      11     336    1020    0.00
    10/27/2021 08:50      21    31.3      0.73        72.5      73.4      54.6       4      10     349     348    1020    0.00
    10/27/2021 09:00      21    31.8      0.73        73.5      73.8      54.6       5      15     348      -0    1020    0.00
    10/27/2021 09:10      20    31.7      0.73        74.3      74.9      54.6       4      13     336     348    1020    0.00
    10/27/2021 09:20      20    30.0      0.73        75.3      75.6      54.6       4      12     340      11    1020    0.00
    10/27/2021 09:30      21    31.8      0.73        75.6      75.8      54.6       5      12     332     326    1020    0.00
    10/27/2021 09:40      18    30.7      0.73        76.0      76.5      54.6       5      12     339     337    1020    0.00
    10/27/2021 09:50      17    29.6      0.73        76.9      77.5      54.6       4       8     333     337    1020    0.00
    10/27/2021 10:00      18    29.4      0.73        77.1      77.7      54.6       5      15     333     341    1020    0.00
    10/27/2021 10:10      17    30.1      0.73        77.2      78.0      54.6       3       8     333     337    1020    0.00
    10/27/2021 10:20      18    30.0      0.73        78.0      78.4      54.6       5      14     330     351    1020    0.00
    10/27/2021 10:30      17    29.6      0.73        78.4      78.7      54.6       6      13     344     316    1020    0.00
    10/27/2021 10:40      16    29.6      0.73        78.8      79.2      54.6       5      13       4      16    1020    0.00
    10/27/2021 10:50      17    30.0      0.73        79.3      79.7      54.6       4      11     354     338    1020    0.00
    10/27/2021 11:00      16    30.3      0.73        79.7      80.1      54.6       5      12       2     314    1020    0.00
    10/27/2021 11:10      16    30.4      0.73        80.4      81.1      54.6       4      13     356     351    1019    0.00
    10/27/2021 11:20      16    30.2      0.73        80.7      81.2      54.6       5      15     355     305    1019    0.00
    10/27/2021 11:30      16    29.9      0.73        80.6      81.2      54.6       5      14     350       6    1019    0.00
    10/27/2021 11:40      15    29.9      0.73        81.0      81.3      54.6       6      12     352      25    1019    0.00
    10/27/2021 11:50      15    29.9      0.73        81.3      81.7      54.6       5      14     360     347    1019    0.00
    10/27/2021 12:00      17    30.5      0.73        81.5      82.0      54.6       5      15     342     330    1018    0.00
    10/27/2021 12:10      15    30.6      0.73        82.0      82.3      54.6       5      11     357     318    1018    0.00
    10/27/2021 12:20      15    31.0      0.73        82.3      82.7      54.6       5      15     345     350    1018    0.00
    10/27/2021 12:30      16    30.7      0.73        82.3      82.8      54.6       5      13     337     343    1018    0.00
    10/27/2021 12:40      15    30.9      0.73        82.4      82.9      54.6       5      21     349     331    1018    0.00
    10/27/2021 12:50      15    30.7      0.73        82.6      83.0      54.6       6      16     340     336    1018    0.00
    10/27/2021 13:00      15    30.6      0.73        82.7      83.2      54.6       5      17     335     318    1018    0.00
    10/27/2021 13:10      15    30.8      0.73        83.2      83.5      54.6       5      18     340     341    1018    0.00
    10/27/2021 13:20      15    30.6      0.73        83.5      83.7      54.6       5      13     341     332    1017    0.00
    10/27/2021 13:30      15    30.9      0.73        83.5      83.8      54.6       5      16     342       0    1017    0.00
    10/27/2021 13:40      15    30.9      0.73        83.7      84.0      54.6       6      15     341      15    1017    0.00
    10/27/2021 13:50      15    31.1      0.73        83.2      84.0      54.6       5      16     335     338    1017    0.00
    10/27/2021 14:00      15    31.6      0.73        83.6      84.0      54.6       6      13     342     349    1017    0.00
    10/27/2021 14:10      16    31.9      0.73        83.6      84.0      54.6       5      13     336     323    1017    0.00
    10/27/2021 14:20      16    31.8      0.73        83.3      84.0      54.6       5      12     338     339    1017    0.00
    10/27/2021 14:30      16    31.7      0.73        83.2      84.0      54.6       7      21     339     302    1017    0.00
    10/27/2021 14:40      16    31.3      0.73        82.8      84.0      54.6       7      17     340     307    1017    0.00
    10/27/2021 14:50      16    31.1      0.73        82.5      84.0      54.6       6      16     329     338    1017    0.00
    10/27/2021 15:00      15    31.1      0.73        82.7      84.0      54.6       6      15     338     329    1017    0.00
    10/27/2021 15:10      15    31.1      0.73        82.6      84.0      54.6       5      12     339     348    1017    0.00
    10/27/2021 15:20      15    31.1      0.73        82.8      84.0      54.6       5      14     340     315    1016    0.00
    10/27/2021 15:30      15    31.1      0.73        82.6      84.0      54.6       5      12     345     352    1016    0.00
    10/27/2021 15:40      16    31.3      0.73        82.5      84.0      54.6       4      10     333     352    1016    0.00
    10/27/2021 15:50      16    31.3      0.73        82.0      84.0      54.6       4       9     338     312    1016    0.00
    10/27/2021 16:00      16    31.4      0.73        81.8      84.0      54.6       5      13     333     339    1016    0.00
    10/27/2021 16:10      16    31.7      0.73        81.4      84.0      54.6       4      11     337     317    1016    0.00
    10/27/2021 16:20      16    31.6      0.73        81.2      84.0      54.6       4      10     331     353    1016    0.00
    10/27/2021 16:30      17    31.6      0.73        80.9      84.0      54.6       5      14     336     343    1016    0.00
    10/27/2021 16:40      17    31.6      0.73        80.5      84.0      54.6       4      11     335     322    1016    0.00
    10/27/2021 16:50      17    31.5      0.73        80.0      84.0      54.6       4      10     338     347    1016    0.00
    10/27/2021 17:00      18    31.4      0.73        79.4      84.0      54.6       4       9     340       5    1016    0.00
    10/27/2021 17:10      19    31.6      0.73        78.7      84.0      54.6       3       8     350      19    1016    0.00
    10/27/2021 17:20      20    32.8      0.73        77.8      84.0      54.6       3       9     343     322    1016    0.00
    10/27/2021 17:30      20    33.6      0.73        77.3      84.0      54.6       2       7     359      68    1016    0.00
    10/27/2021 17:40      22    34.0      0.73        76.6      84.0      54.6       2       6     355     306    1017    0.00
    10/27/2021 17:50      22    34.3      0.73        76.2      84.0      54.6       2       7     350     326    1017    0.00
    10/27/2021 18:00      22    34.3      0.73        75.8      84.0      54.6       2       8     353     338    1017    0.00
    10/27/2021 18:10      22    34.3      0.73        75.8      84.0      54.6       2       6       4     315    1017    0.00
    10/27/2021 18:20      22    34.1      0.73        75.7      84.0      54.6       3       7     342     319    1017    0.00
    10/27/2021 18:30      21    33.5      0.73        76.3      84.0      54.6       5      13     339     336    1017    0.00
    10/27/2021 18:40      21    33.3      0.73        76.3      84.0      54.6       5      11     339     341    1017    0.00
    10/27/2021 18:50      21    33.2      0.73        76.1      84.0      54.6       5      16     335     343    1017    0.00
    10/27/2021 19:00      21    33.5      0.73        75.8      84.0      54.6       4      12     335       6    1017    0.00
    10/27/2021 19:10      21    33.4      0.73        75.7      84.0      54.6       5      11     338     333    1017    0.00
    10/27/2021 19:20      22    33.5      0.73        75.4      84.0      54.6       4       9     335     326    1017    0.00
    10/27/2021 19:30      22    33.5      0.73        75.2      84.0      54.6       4       8     338     332    1017    0.00
    10/27/2021 19:40      23    33.8      0.73        74.7      84.0      54.6       3       9     346     346    1017    0.00
    10/27/2021 19:50      23    33.9      0.73        74.3      84.0      54.6       3      10     339     343    1017    0.00
    10/27/2021 20:00      23    33.8      0.73        74.3      84.0      54.6       3       8     345     341    1017    0.00
    10/27/2021 20:10      23    33.9      0.73        73.8      84.0      54.6       2       8     345       0    1017    0.00
    10/27/2021 20:20      23    34.1      0.73        73.8      84.0      54.6       2       6     356       0    1017    0.00
    10/27/2021 20:30      23    34.3      0.73        73.5      84.0      54.6       2       7     340     353    1017    0.00
    10/27/2021 20:40      23    33.9      0.73        74.3      84.0      54.6       4       9     331     353    1017    0.00
    10/27/2021 20:50      23    34.3      0.73        74.5      84.0      54.6       3       9     339     340    1017    0.00
    10/27/2021 21:00      23    34.5      0.73        74.3      84.0      54.6       3       9     339     353    1017    0.00
    10/27/2021 21:10      22    34.1      0.73        74.7      84.0      54.6       4      10     336     330    1017    0.00
    10/27/2021 21:20      22    34.0      0.73        74.9      84.0      54.6       4      13     334     340    1017    0.00
    10/27/2021 21:30      22    33.6      0.73        75.2      84.0      54.6       5      11     337     343    1017    0.00
    10/27/2021 21:40      23    33.9      0.73        74.9      84.0      54.6       2       9     343     346    1017    0.00
    10/27/2021 21:50      24    34.5      0.73        73.8      84.0      54.6       1       3     233     327    1017    0.00
    10/27/2021 22:00      25    35.0      0.73        73.0      84.0      54.6       3       8     155     150    1017    0.00
    10/27/2021 22:10      23    34.5      0.73        73.0      84.0      54.6       3      10     245     331    1017    0.00
    10/27/2021 22:20      22    33.6      0.73        74.4      84.0      54.6       3       7     334     308    1017    0.00
    10/27/2021 22:30      23    33.5      0.73        74.7      84.0      54.6       3       9     346     307    1017    0.00
    10/27/2021 22:40      24    34.3      0.73        74.7      84.0      54.6       3       8     305      42    1017    0.00
    10/27/2021 22:50      30    37.3      0.73        71.8      84.0      54.6       3       6     198     178    1017    0.00
    10/27/2021 23:00      33    37.4      0.73        68.9      84.0      54.6       2       5     165     168    1017    0.00
    10/27/2021 23:10      35    38.0      0.73        67.2      84.0      54.6       2       4     141      38    1017    0.00
    10/27/2021 23:20      35    38.1      0.73        66.8      84.0      54.6       3       6     116     140    1017    0.00
    10/27/2021 23:30      37    38.4      0.73        66.6      84.0      54.6       2       5     316     135    1017    0.00
    10/27/2021 23:40      35    38.3      0.73        66.3      84.0      54.6       1       4      20     241    1017    0.00
    10/27/2021 23:50      35    38.2      0.73        66.8      84.0      54.6       3       5     170     145    1017    0.00
    10/28/2021 00:00      34    37.9      0.73        66.4      84.0      54.6       2       4     165     159    1017    0.00
    10/28/2021 00:10      35    37.6      0.73        66.5      66.7      66.1       1       4     192     141    1017    0.00
    10/28/2021 00:20      38    38.0      0.73        65.7      66.7      64.9       1       3     157     141    1017    0.00
    10/28/2021 00:30      39    38.3      0.73        64.6      66.7      64.2       0       3     180     157    1017    0.00
    10/28/2021 00:40      38    38.2      0.73        64.9      66.7      64.1       2       4     179     144    1017    0.00
    10/28/2021 00:50      39    38.3      0.73        64.5      66.7      64.1       0       4     206     184    1017    0.00
    10/28/2021 01:00      42    39.3      0.73        63.6      66.7      63.0       1       3     202     162    1017    0.00
    10/28/2021 01:10      41    39.4      0.73        62.8      66.7      62.5       2       3     156     121    1017    0.00
    10/28/2021 01:20      40    38.6      0.73        63.5      66.7      62.5       1       3     198     150    1017    0.00
    10/28/2021 01:30      42    38.8      0.73        63.3      66.7      62.5       0       2     211     204    1017    0.00
    10/28/2021 01:40      43    39.7      0.73        62.4      66.7      62.1       1       2     296     313    1017    0.00
    10/28/2021 01:50      43    39.6      0.73        62.4      66.7      62.1       1       3     289     321    1017    0.00
    10/28/2021 02:00      43    39.7      0.73        62.1      66.7      61.9       1       3     304     231    1017    0.00
    10/28/2021 02:10      45    39.8      0.73        61.9      66.7      61.5       1       2     300     312    1017    0.00
    10/28/2021 02:20      46    39.9      0.73        61.2      66.7      60.9       1       3     276     334    1017    0.00
    10/28/2021 02:30      46    39.9      0.73        60.9      66.7      60.5       0       2     302     216    1017    0.00
    10/28/2021 02:40      48    40.0      0.73        60.5      66.7      60.1       0       2     260     313    1016    0.00
    10/28/2021 02:50      45    39.8      0.73        60.8      66.7      60.1       1       3     176     146    1016    0.00
    10/28/2021 03:00      44    39.7      0.73        61.2      66.7      60.1       1       4     209     213    1016    0.00
    10/28/2021 03:10      43    39.1      0.73        62.1      66.7      60.1       0       2     282     317    1016    0.00
    10/28/2021 03:20      43    39.1      0.73        62.1      66.7      60.1       0       2     186     190    1016    0.00
    10/28/2021 03:30      43    39.1      0.73        61.8      66.7      60.1       2       5     113     171    1016    0.00
    10/28/2021 03:40      45    39.4      0.73        61.7      66.7      60.1       1       4     181     329    1016    0.00
    10/28/2021 03:50      46    39.9      0.73        60.9      66.7      60.1       2       4     183     335    1016    0.00
    10/28/2021 04:00      46    40.0      0.73        60.6      66.7      60.1       0       3     124     145    1016    0.00
    10/28/2021 04:10      47    40.2      0.73        60.8      66.7      60.1       2       4     138     167    1016    0.00
    10/28/2021 04:20      35    39.6      0.73        61.8      66.7      60.1       3      13     309     331    1016    0.00
    10/28/2021 04:30      26    36.7      0.73        70.6      73.0      60.1       5      13     343     335    1016    0.00
    10/28/2021 04:40      25    36.0      0.73        73.4      73.8      60.1       5      13     341     316    1016    0.00
    10/28/2021 04:50      25    35.8      0.73        73.8      74.0      60.1       6      14     342     337    1016    0.00
    10/28/2021 05:00      25    35.6      0.73        73.8      74.2      60.1       5      14     346     354    1016    0.00
    10/28/2021 05:10      25    35.6      0.73        73.9      74.2      60.1       5      14     350     325    1016    0.00
    10/28/2021 05:20      25    35.5      0.73        73.8      74.2      60.1       4      12     341     331    1016    0.00
    10/28/2021 05:30      25    35.6      0.73        73.6      74.2      60.1       4      11     348     320    1016    0.00
    10/28/2021 05:40      24    35.5      0.73        73.7      74.2      60.1       5      16     338       9    1016    0.00
    10/28/2021 05:50      24    35.4      0.73        74.0      74.3      60.1       5      16     342      25    1016    0.00
    10/28/2021 06:00      25    35.3      0.73        73.9      74.3      60.1       5      14     344     308    1016    0.00
    10/28/2021 06:10      24    35.4      0.73        73.9      74.3      60.1       5      12     349     338    1016    0.00
    10/28/2021 06:20      24    35.3      0.73        74.2      74.6      60.1       5      13     349     334    1016    0.00
    10/28/2021 06:30      24    35.4      0.73        74.7      74.9      60.1       5      16     338     339    1016    0.00
    10/28/2021 06:40      24    35.6      0.73        74.4      74.9      60.1       4      13     348       6    1016    0.00
    10/28/2021 06:50      24    35.7      0.73        74.7      75.2      60.1       6      15     342     333    1016    0.00
    10/28/2021 07:00      23    35.7      0.73        75.3      75.9      60.1       5      11     345       8    1016    0.00
    10/28/2021 07:10      23    35.8      0.73        76.1      76.5      60.1       5      12     343     315    1017    0.00
    10/28/2021 07:20      22    35.8      0.73        76.6      77.1      60.1       5      13     346     342    1017    0.00
    10/28/2021 07:30      22    36.1      0.73        77.4      77.8      60.1       4      11     345     354    1017    0.00
    10/28/2021 07:40      22    36.1      0.73        78.1      78.4      60.1       5      15     339     327    1017    0.00
    10/28/2021 07:50      22    36.2      0.73        78.5      78.9      60.1       6      17     344       8    1017    0.00
    10/28/2021 08:00      21    36.2      0.73        79.2      79.5      60.1       6      13     341     337    1017    0.00
    10/28/2021 08:10      21    36.3      0.73        79.5      79.9      60.1       4      13     350     301    1017    0.00
    10/28/2021 08:20      21    36.3      0.73        79.8      80.1      60.1       5      13     340     354    1017    0.00
    10/28/2021 08:30      20    35.6      0.73        80.3      80.8      60.1       5      14     345     326    1017    0.00
    10/28/2021 08:40      18    34.1      0.73        81.4      82.0      60.1       5      13     345     315    1017    0.00
    10/28/2021 08:50      17    33.9      0.73        82.3      82.9      60.1       6      16     339     324    1017    0.00
    10/28/2021 09:00      17    33.9      0.73        83.1      83.7      60.1       4      13     340     339    1017    0.00
    10/28/2021 09:10      16    34.0      0.73        83.9      84.6      60.1       5      13     335     346    1017    0.00
    10/28/2021 09:20      16    33.8      0.73        84.6      85.1      60.1       6      15     337     343    1017    0.00
    10/28/2021 09:30      16    33.7      0.73        85.1      85.4      60.1       6      16     335     343    1017    0.00